Time;durP1;ratioP1;P1;durP2;ratioP2;P2;SDS_P1;SDS_P2;PMS_P1;PMS_P2;Temp;Humidity;BMP_temperature;BMP_pressure;BME280_temperature;BME280_humidity;BME280_pressure;Samples;Min_cycle;Max_cycle;Signal;HPM_P1;HPM_P2
2022/01/23 00:00:50;;;;;;;21.27;14.90;;;6.70;97.60;;;;;;5052892;28;20512;-66
2022/01/23 00:03:19;;;;;;;22.45;15.43;;;6.60;97.50;;;;;;5067821;28;20049;-66
2022/01/23 00:05:48;;;;;;;23.73;15.85;;;6.70;97.60;;;;;;5067822;28;20561;-68
2022/01/23 00:08:17;;;;;;;25.27;15.30;;;6.70;97.60;;;;;;5068757;28;20095;-66
2022/01/23 00:10:44;;;;;;;24.52;15.30;;;6.70;97.60;;;;;;5068449;28;20049;-69
2022/01/23 00:13:22;;;;;;;18.92;13.88;;;6.70;97.60;;;;;;5067268;28;20044;-66
2022/01/23 00:18:34;;;;;;;23.27;15.15;;;6.70;97.60;;;;;;5066153;28;20040;-67
2022/01/23 00:21:01;;;;;;;20.25;14.25;;;6.70;97.60;;;;;;5068291;28;20072;-67
2022/01/23 00:30:19;;;;;;;18.83;14.77;;;6.70;97.70;;;;;;5062013;28;20244;-66
2022/01/23 00:31:51;;;;;;;21.27;13.30;;;6.70;97.60;;;;;;5065447;28;20411;-65
2022/01/23 00:34:19;;;;;;;19.65;13.02;;;6.70;97.70;;;;;;5047889;28;20054;-65
2022/01/23 00:36:46;;;;;;;21.25;13.63;;;6.70;97.70;;;;;;5055542;28;20041;-64
2022/01/23 00:39:13;;;;;;;18.13;12.95;;;6.70;97.70;;;;;;5063784;28;20049;-66
2022/01/23 00:41:40;;;;;;;18.38;12.48;;;6.70;97.70;;;;;;5056758;28;20516;-65
2022/01/23 00:44:07;;;;;;;16.35;11.98;;;6.70;97.70;;;;;;5064581;28;20745;-65
2022/01/23 00:46:36;;;;;;;16.67;12.35;;;6.70;97.70;;;;;;5067033;28;20096;-66
2022/01/23 00:51:35;;;;;;;16.50;12.07;;;6.70;97.70;;;;;;5053134;28;20118;-66
2022/01/23 00:54:03;;;;;;;18.35;11.85;;;6.70;97.80;;;;;;5068515;28;20040;-66
2022/01/23 00:56:30;;;;;;;22.27;12.75;;;6.70;97.80;;;;;;5072807;28;20078;-67
2022/01/23 00:58:57;;;;;;;17.40;11.07;;;6.70;97.80;;;;;;5072457;28;20109;-66
2022/01/23 01:01:24;;;;;;;21.55;12.95;;;6.70;97.80;;;;;;5073288;28;20416;-67
2022/01/23 01:03:51;;;;;;;15.02;11.75;;;6.70;97.80;;;;;;5072039;28;20603;-65
2022/01/23 01:06:18;;;;;;;19.33;12.00;;;6.70;97.80;;;;;;5072165;28;20052;-67
2022/01/23 01:08:47;;;;;;;15.15;12.07;;;6.70;97.90;;;;;;5070038;28;20105;-66
2022/01/23 01:35:31;;;;;;;13.35;9.88;;;6.70;97.80;;;;;;5070451;28;20049;-66
2022/01/23 01:37:58;;;;;;;12.68;9.75;;;6.60;97.80;;;;;;5069733;28;20080;-67
2022/01/23 01:40:25;;;;;;;13.30;8.68;;;6.60;97.90;;;;;;5069452;28;20496;-66
2022/01/23 01:42:52;;;;;;;15.60;10.25;;;6.60;97.70;;;;;;5069563;28;20525;-66
2022/01/23 01:45:27;;;;;;;13.27;10.18;;;6.60;97.80;;;;;;5068103;28;20045;-66
2022/01/23 01:47:56;;;;;;;14.43;9.48;;;6.60;97.80;;;;;;5071608;28;20056;-66
2022/01/23 01:50:22;;;;;;;14.50;9.73;;;6.60;98.00;;;;;;5073324;28;20079;-66
2022/01/23 01:52:49;;;;;;;14.25;10.50;;;6.70;97.90;;;;;;5073454;28;20561;-66
2022/01/23 01:55:23;;;;;;;16.02;10.70;;;6.60;97.90;;;;;;5076270;28;20060;-66
2022/01/23 01:57:53;;;;;;;15.48;9.50;;;6.60;98.10;;;;;;5073115;28;20083;-66
2022/01/23 02:10:51;;;;;;;13.52;10.65;;;6.60;98.00;;;;;;5073571;28;20040;-66
2022/01/23 02:13:22;;;;;;;15.00;10.18;;;6.70;98.00;;;;;;5073202;28;20484;-67
2022/01/23 02:54:45;;;;;;;14.32;10.43;;;6.60;98.10;;;;;;5062835;28;20048;-65
2022/01/23 02:57:20;;;;;;;12.40;10.05;;;6.70;98.10;;;;;;5072045;28;20084;-65
2022/01/23 02:59:48;;;;;;;14.90;11.52;;;6.60;98.00;;;;;;5070898;28;20052;-66
2022/01/23 03:02:39;;;;;;;15.45;11.23;;;6.70;98.00;;;;;;5071651;28;20084;-66
2022/01/23 03:05:12;;;;;;;14.68;10.35;;;6.70;98.00;;;;;;5072083;28;20094;-65
2022/01/23 03:07:59;;;;;;;15.63;11.07;;;6.70;98.00;;;;;;5071935;28;20041;-66
2022/01/23 03:10:30;;;;;;;12.77;10.23;;;6.70;98.00;;;;;;5070589;28;20421;-66
2022/01/23 03:26:39;;;;;;;15.80;12.00;;;6.70;98.00;;;;;;5071959;28;20126;-66
2022/01/23 03:31:57;;;;;;;13.73;10.48;;;6.60;98.10;;;;;;5070409;28;20052;-67
2022/01/23 03:34:26;;;;;;;14.70;10.68;;;6.60;98.40;;;;;;5071187;28;20072;-66
2022/01/23 03:36:53;;;;;;;14.23;11.27;;;6.60;98.20;;;;;;5071599;28;20075;-66
2022/01/23 03:39:20;;;;;;;13.75;10.48;;;6.60;98.30;;;;;;5071189;28;20044;-66
2022/01/23 03:41:47;;;;;;;16.08;10.95;;;6.60;98.50;;;;;;5046711;28;20044;-67
2022/01/23 03:44:15;;;;;;;16.60;12.55;;;6.60;98.30;;;;;;5060891;28;20492;-66
2022/01/23 03:49:31;;;;;;;17.98;12.23;;;6.60;98.20;;;;;;5070865;28;20503;-66
2022/01/23 03:52:07;;;;;;;17.33;11.60;;;6.60;98.20;;;;;;5071052;28;20415;-66
2022/01/23 03:54:34;;;;;;;19.40;13.93;;;6.60;98.20;;;;;;5070884;28;20504;-66
2022/01/23 03:57:02;;;;;;;16.10;11.38;;;6.70;98.20;;;;;;5070041;28;20098;-66
2022/01/23 03:59:31;;;;;;;16.50;11.90;;;6.60;98.30;;;;;;5069776;28;20063;-66
2022/01/23 04:01:57;;;;;;;17.10;12.05;;;6.60;98.20;;;;;;5069384;28;20101;-66
2022/01/23 04:07:00;;;;;;;17.85;11.80;;;6.60;98.20;;;;;;5070979;28;20076;-66
2022/01/23 04:09:27;;;;;;;17.10;12.15;;;6.60;98.30;;;;;;5070589;28;20044;-66
2022/01/23 04:11:54;;;;;;;17.25;12.00;;;6.50;98.30;;;;;;5070545;28;20076;-66
2022/01/23 04:14:23;;;;;;;15.68;11.70;;;6.50;98.30;;;;;;5070323;28;20507;-66
2022/01/23 04:19:55;;;;;;;16.98;11.45;;;6.50;98.30;;;;;;5070432;28;20049;-66
2022/01/23 04:33:52;;;;;;;17.95;12.38;;;6.60;98.30;;;;;;5070210;28;20059;-66
2022/01/23 05:00:59;;;;;;;16.25;12.05;;;6.50;98.50;;;;;;5070427;28;20049;-66
2022/01/23 05:06:05;;;;;;;18.13;12.70;;;6.50;98.60;;;;;;5070904;28;20058;-66
2022/01/23 05:08:34;;;;;;;17.10;11.77;;;6.50;98.30;;;;;;5069407;28;20066;-67
2022/01/23 05:11:02;;;;;;;20.30;12.70;;;6.50;98.40;;;;;;5070510;28;20052;-66
2022/01/23 05:13:29;;;;;;;19.63;13.80;;;6.50;98.40;;;;;;5069964;28;20040;-66
2022/01/23 05:15:56;;;;;;;20.27;13.38;;;6.50;98.40;;;;;;5064940;28;20041;-66
2022/01/23 05:18:23;;;;;;;18.05;12.70;;;6.50;98.40;;;;;;5069336;28;20131;-66
2022/01/23 05:20:58;;;;;;;19.08;12.98;;;6.50;98.40;;;;;;5069882;28;20087;-66
2022/01/23 05:23:25;;;;;;;18.88;13.85;;;6.60;98.40;;;;;;5072523;28;20075;-66
2022/01/23 05:25:52;;;;;;;20.05;13.77;;;6.50;98.50;;;;;;5074203;28;20041;-66
2022/01/23 05:28:19;;;;;;;19.48;13.70;;;6.50;98.60;;;;;;5073934;28;20040;-67
2022/01/23 05:30:45;;;;;;;19.77;14.23;;;6.50;98.70;;;;;;5074467;28;20094;-65
2022/01/23 05:33:12;;;;;;;20.35;14.35;;;6.50;98.70;;;;;;5072339;28;20048;-67
2022/01/23 05:35:39;;;;;;;21.00;13.88;;;6.50;98.60;;;;;;5073605;28;20071;-66
2022/01/23 05:38:06;;;;;;;21.38;14.45;;;6.50;98.50;;;;;;5073519;28;20738;-66
2022/01/23 05:40:33;;;;;;;21.55;13.50;;;6.50;98.50;;;;;;5072655;28;20495;-66
2022/01/23 05:42:59;;;;;;;18.92;13.02;;;6.50;98.50;;;;;;5073601;28;20048;-66
2022/01/23 05:45:26;;;;;;;17.98;12.75;;;6.60;98.60;;;;;;5060976;28;20468;-66
2022/01/23 05:47:53;;;;;;;21.80;14.10;;;6.50;98.60;;;;;;5060241;28;20087;-66
2022/01/23 05:50:20;;;;;;;19.80;12.73;;;6.40;98.60;;;;;;5072157;28;20204;-65
2022/01/23 05:52:47;;;;;;;17.95;12.75;;;6.50;98.70;;;;;;5079343;28;20068;-66
2022/01/23 05:55:15;;;;;;;19.98;13.45;;;6.50;98.90;;;;;;5073381;28;20048;-66
2022/01/23 05:57:41;;;;;;;18.52;13.30;;;6.40;98.70;;;;;;5073356;28;20075;-66
2022/01/23 06:00:09;;;;;;;20.02;13.55;;;6.50;98.60;;;;;;5073456;28;20052;-66
2022/01/23 06:02:36;;;;;;;17.55;13.40;;;6.50;98.60;;;;;;5077990;28;20044;-66
2022/01/23 06:05:03;;;;;;;19.48;13.93;;;6.50;98.70;;;;;;5071921;28;20041;-66
2022/01/23 06:07:29;;;;;;;21.58;14.20;;;6.40;98.80;;;;;;5073112;28;20044;-66
2022/01/23 06:09:56;;;;;;;19.88;13.88;;;6.40;98.90;;;;;;5073372;28;20109;-66
2022/01/23 06:12:23;;;;;;;18.15;12.85;;;6.40;98.90;;;;;;5073321;28;20194;-66
2022/01/23 06:14:50;;;;;;;24.70;16.60;;;6.40;98.80;;;;;;5073037;28;20462;-66
2022/01/23 06:17:17;;;;;;;20.52;14.43;;;6.40;98.70;;;;;;5072984;28;20385;-66
2022/01/23 06:19:43;;;;;;;23.02;14.15;;;6.50;98.70;;;;;;5072564;28;20071;-66
2022/01/23 06:22:11;;;;;;;20.05;14.50;;;6.50;98.70;;;;;;5073079;28;20083;-66
2022/01/23 06:24:46;;;;;;;21.73;14.75;;;6.50;98.70;;;;;;5072780;28;20053;-66
2022/01/23 06:27:13;;;;;;;24.08;15.48;;;6.50;99.10;;;;;;5073298;28;20048;-66
2022/01/23 06:29:42;;;;;;;21.83;14.80;;;6.50;98.70;;;;;;5072479;28;20049;-66
2022/01/23 06:32:09;;;;;;;21.30;14.73;;;6.40;98.60;;;;;;5071567;28;20100;-66
2022/01/23 06:34:36;;;;;;;22.42;15.57;;;6.50;98.70;;;;;;5070036;28;20046;-66
2022/01/23 06:37:04;;;;;;;19.63;13.88;;;6.50;98.60;;;;;;5072715;28;20045;-66
2022/01/23 06:39:31;;;;;;;20.83;14.80;;;6.50;98.50;;;;;;5072258;28;20040;-66
2022/01/23 06:41:58;;;;;;;25.40;16.25;;;6.50;98.50;;;;;;5071445;28;20104;-66
2022/01/23 06:44:26;;;;;;;24.13;16.15;;;6.60;98.60;;;;;;5071231;28;20117;-66
2022/01/23 06:46:52;;;;;;;23.38;15.88;;;6.50;98.60;;;;;;5072328;28;20052;-65
2022/01/23 06:49:19;;;;;;;19.20;13.48;;;6.50;98.50;;;;;;5070509;28;20049;-66
2022/01/23 06:51:47;;;;;;;21.15;14.38;;;6.50;98.60;;;;;;5067673;28;20076;-67
2022/01/23 06:54:14;;;;;;;22.17;15.30;;;6.50;98.60;;;;;;5072359;28;20052;-66
2022/01/23 06:56:41;;;;;;;23.13;15.70;;;6.50;98.60;;;;;;5071863;28;20087;-66
2022/01/23 06:59:07;;;;;;;22.20;15.27;;;6.50;98.60;;;;;;5070929;28;20420;-66
2022/01/23 07:01:34;;;;;;;22.63;15.50;;;6.40;98.70;;;;;;5071670;28;20044;-66
2022/01/23 07:04:01;;;;;;;25.25;16.30;;;6.40;98.80;;;;;;5074967;28;20134;-66
2022/01/23 07:06:28;;;;;;;21.58;14.80;;;6.40;98.80;;;;;;5076602;28;20052;-66
2022/01/23 07:09:06;;;;;;;22.73;14.88;;;6.50;98.80;;;;;;5052036;28;20056;-66
2022/01/23 07:11:33;;;;;;;22.85;15.25;;;6.50;98.80;;;;;;5066230;28;20053;-66
2022/01/23 07:14:00;;;;;;;23.83;15.57;;;6.50;98.70;;;;;;5071821;28;20044;-66
2022/01/23 07:16:27;;;;;;;19.63;13.75;;;6.50;98.80;;;;;;5070710;28;20136;-67
2022/01/23 07:18:54;;;;;;;21.13;14.27;;;6.50;98.70;;;;;;5071736;28;20478;-66
2022/01/23 07:21:20;;;;;;;21.00;14.85;;;6.50;98.70;;;;;;5071177;28;20047;-66
2022/01/23 07:23:51;;;;;;;23.58;14.80;;;6.60;98.60;;;;;;5071878;28;20053;-66
2022/01/23 07:26:21;;;;;;;22.75;15.45;;;6.50;98.90;;;;;;5071271;28;20423;-66
2022/01/23 07:28:48;;;;;;;21.83;15.45;;;6.50;98.60;;;;;;5071759;28;20063;-68
2022/01/23 07:31:44;;;;;;;20.80;14.60;;;6.50;98.60;;;;;;5071429;28;20079;-66
2022/01/23 07:34:16;;;;;;;21.75;15.55;;;6.50;98.60;;;;;;5065794;28;20480;-67
2022/01/23 07:36:43;;;;;;;24.35;15.52;;;6.60;98.70;;;;;;5070987;28;20553;-66
2022/01/23 07:39:10;;;;;;;21.00;14.55;;;6.50;98.70;;;;;;5071274;28;20090;-66
2022/01/23 07:41:37;;;;;;;21.63;15.23;;;6.50;98.60;;;;;;5071373;28;20049;-66
2022/01/23 07:44:04;;;;;;;23.60;15.82;;;6.50;98.70;;;;;;5071128;28;20072;-66
2022/01/23 07:46:31;;;;;;;21.02;14.57;;;6.50;98.60;;;;;;5075512;28;20053;-66
2022/01/23 07:48:57;;;;;;;22.33;15.25;;;6.40;98.70;;;;;;5070783;28;20102;-66
2022/01/23 07:51:24;;;;;;;24.00;15.32;;;6.40;99.00;;;;;;5070801;28;20070;-66
2022/01/23 07:53:51;;;;;;;24.83;14.80;;;6.40;98.80;;;;;;5072660;28;20090;-66
2022/01/23 07:56:18;;;;;;;20.75;14.52;;;6.50;98.80;;;;;;5071153;28;20044;-66
2022/01/23 07:58:45;;;;;;;20.77;14.43;;;6.50;98.80;;;;;;5070348;28;20511;-66
2022/01/23 08:01:12;;;;;;;21.02;14.60;;;6.60;98.70;;;;;;5070968;28;20105;-66
2022/01/23 08:03:39;;;;;;;23.20;14.80;;;6.50;98.50;;;;;;5070423;28;20631;-66
2022/01/23 08:06:06;;;;;;;23.33;14.85;;;6.50;98.60;;;;;;5069608;28;20075;-66
2022/01/23 08:08:32;;;;;;;27.55;16.15;;;6.60;98.40;;;;;;5069515;28;20141;-66
2022/01/23 08:10:59;;;;;;;23.17;16.25;;;6.50;98.40;;;;;;5070873;28;20044;-66
2022/01/23 08:13:26;;;;;;;22.98;16.13;;;6.50;98.40;;;;;;5070473;28;20044;-65
2022/01/23 08:15:53;;;;;;;29.63;16.67;;;6.50;98.50;;;;;;5070567;28;20102;-65
2022/01/23 08:18:20;;;;;;;26.65;17.15;;;6.50;98.40;;;;;;5070084;28;20090;-65
2022/01/23 08:20:47;;;;;;;25.48;16.50;;;6.50;98.40;;;;;;5070795;28;20454;-65
2022/01/23 08:23:21;;;;;;;28.05;17.77;;;6.50;98.50;;;;;;5073233;28;20411;-66
2022/01/23 08:25:47;;;;;;;25.08;15.93;;;6.60;98.50;;;;;;5075026;28;20127;-67
2022/01/23 08:28:14;;;;;;;27.38;17.73;;;6.50;98.50;;;;;;5072548;28;20098;-66
2022/01/23 08:30:41;;;;;;;25.80;16.15;;;6.50;98.40;;;;;;5070266;28;20491;-65
2022/01/23 08:33:08;;;;;;;25.42;15.27;;;6.60;98.50;;;;;;5070204;28;20041;-65
2022/01/23 08:35:35;;;;;;;27.13;17.05;;;6.70;98.50;;;;;;5070071;28;20109;-65
2022/01/23 08:38:02;;;;;;;24.95;16.15;;;6.60;98.40;;;;;;5070020;28;20557;-66
2022/01/23 08:43:24;;;;;;;25.70;16.13;;;6.50;98.70;;;;;;5045342;28;20067;-66
2022/01/23 08:45:52;;;;;;;23.13;15.88;;;6.50;98.50;;;;;;5069108;28;20036;-66
2022/01/23 08:48:19;;;;;;;27.35;16.80;;;6.50;98.80;;;;;;5068385;28;20122;-66
2022/01/23 08:50:46;;;;;;;24.92;16.50;;;6.50;98.60;;;;;;5069838;28;20082;-67
2022/01/23 08:53:13;;;;;;;27.75;16.63;;;6.50;98.60;;;;;;5067726;28;20097;-65
2022/01/23 08:55:39;;;;;;;24.95;15.90;;;6.60;98.70;;;;;;5066407;28;20098;-65
2022/01/23 08:58:06;;;;;;;21.98;15.45;;;6.50;98.60;;;;;;5068447;28;20448;-65
2022/01/23 09:00:33;;;;;;;25.63;17.58;;;6.60;98.50;;;;;;5067443;28;20621;-65
2022/01/23 09:03:01;;;;;;;35.78;19.85;;;6.60;98.60;;;;;;5069023;28;20127;-65
2022/01/23 09:05:28;;;;;;;30.35;18.95;;;6.60;98.80;;;;;;5064293;28;20051;-65
2022/01/23 09:07:55;;;;;;;31.63;18.65;;;6.60;98.40;;;;;;5069537;28;20080;-66
2022/01/23 09:10:26;;;;;;;28.05;18.13;;;6.60;98.50;;;;;;5067904;28;20040;-66
2022/01/23 09:13:28;;;;;;;25.75;17.15;;;6.60;98.60;;;;;;5066741;28;20125;-66
2022/01/23 09:15:55;;;;;;;24.23;16.42;;;6.60;98.60;;;;;;5066489;28;20048;-66
2022/01/23 09:18:22;;;;;;;23.88;15.63;;;6.60;98.60;;;;;;5063090;28;20044;-65
2022/01/23 09:20:48;;;;;;;20.65;15.32;;;6.70;98.60;;;;;;5063942;28;20102;-66
2022/01/23 09:23:15;;;;;;;24.30;16.58;;;6.60;98.70;;;;;;5059986;28;20041;-67
2022/01/23 09:25:42;;;;;;;25.33;16.77;;;6.60;98.70;;;;;;5061545;28;20045;-66
2022/01/23 09:28:13;;;;;;;24.50;16.50;;;6.70;98.70;;;;;;5066888;28;20052;-66
2022/01/23 09:30:47;;;;;;;27.70;17.50;;;6.70;98.60;;;;;;5061832;28;20072;-66
2022/01/23 09:33:15;;;;;;;23.58;15.25;;;6.70;98.60;;;;;;5068012;28;20128;-66
2022/01/23 09:35:42;;;;;;;26.83;17.08;;;6.70;98.40;;;;;;5069215;28;20052;-66
2022/01/23 09:38:08;;;;;;;23.25;16.52;;;6.70;98.50;;;;;;5068050;28;20045;-66
2022/01/23 09:40:40;;;;;;;28.95;18.42;;;6.80;98.40;;;;;;5073499;28;20036;-67
2022/01/23 09:43:18;;;;;;;27.02;19.02;;;6.70;98.40;;;;;;5052216;28;20095;-66
2022/01/23 09:45:45;;;;;;;29.00;18.75;;;6.70;98.30;;;;;;5069028;28;20041;-66
2022/01/23 09:48:12;;;;;;;25.92;17.50;;;6.70;98.40;;;;;;5068315;28;20052;-66
2022/01/23 09:50:39;;;;;;;26.30;17.77;;;6.80;98.30;;;;;;5054209;28;20040;-67
2022/01/23 09:53:06;;;;;;;31.45;18.27;;;6.80;98.20;;;;;;5068749;28;20084;-67
2022/01/23 09:55:33;;;;;;;28.15;18.38;;;6.90;98.40;;;;;;5049556;28;20143;-66
2022/01/23 09:58:00;;;;;;;29.17;18.58;;;6.90;98.10;;;;;;5067523;28;20106;-66
2022/01/23 10:00:28;;;;;;;33.53;19.65;;;6.90;98.30;;;;;;5069242;28;20048;-67
2022/01/23 10:02:56;;;;;;;29.60;19.48;;;6.80;98.00;;;;;;5066804;28;20106;-67
2022/01/23 10:05:23;;;;;;;26.55;17.83;;;6.80;98.00;;;;;;5066607;28;20048;-67
2022/01/23 10:07:50;;;;;;;27.35;17.50;;;6.80;98.10;;;;;;5068131;28;20048;-67
2022/01/23 10:10:26;;;;;;;23.85;16.17;;;6.90;98.00;;;;;;5054068;28;20053;-67
2022/01/23 10:12:55;;;;;;;25.38;17.88;;;6.90;97.80;;;;;;5071424;28;20044;-66
2022/01/23 10:15:25;;;;;;;24.63;16.85;;;6.90;97.80;;;;;;5071741;28;20121;-67
2022/01/23 10:17:55;;;;;;;22.17;14.98;;;6.90;97.70;;;;;;5071718;28;20086;-67
2022/01/23 10:20:22;;;;;;;22.05;15.07;;;7.00;97.70;;;;;;5072115;28;20106;-66
2022/01/23 10:22:51;;;;;;;22.90;16.75;;;7.00;97.50;;;;;;5071659;28;20086;-67
2022/01/23 10:25:20;;;;;;;26.77;17.08;;;7.00;97.50;;;;;;5072655;28;20078;-65
2022/01/23 10:27:54;;;;;;;21.85;15.75;;;6.90;97.50;;;;;;5054859;28;20074;-65
2022/01/23 10:30:23;;;;;;;21.63;15.35;;;7.00;97.40;;;;;;5072830;28;20095;-64
2022/01/23 10:33:10;;;;;;;20.60;13.75;;;7.10;97.30;;;;;;5070471;28;20041;-65
2022/01/23 10:36:03;;;;;;;19.65;14.30;;;7.10;97.10;;;;;;5071040;28;20103;-64
2022/01/23 10:38:52;;;;;;;23.38;15.25;;;7.10;96.60;;;;;;5070842;28;20084;-64
2022/01/23 10:50:04;;;;;;;19.83;14.25;;;7.10;96.50;;;;;;5051027;28;20135;-65
2022/01/23 10:52:39;;;;;;;17.67;11.77;;;7.10;96.70;;;;;;5054739;28;20049;-66
2022/01/23 10:55:11;;;;;;;16.38;12.40;;;7.10;96.50;;;;;;5070851;28;20105;-65
2022/01/23 10:57:43;;;;;;;15.95;10.55;;;7.20;96.20;;;;;;5071482;28;20088;-65
2022/01/23 11:00:20;;;;;;;14.10;10.70;;;7.10;96.00;;;;;;5070918;28;20692;-65
2022/01/23 11:02:47;;;;;;;18.73;11.80;;;7.10;95.70;;;;;;5070754;28;20106;-65
2022/01/23 11:05:17;;;;;;;18.02;12.15;;;7.10;95.90;;;;;;5070665;28;20067;-65
2022/01/23 11:07:45;;;;;;;25.27;13.38;;;7.10;96.00;;;;;;5070876;28;20049;-64
2022/01/23 11:10:20;;;;;;;19.58;12.40;;;7.20;96.10;;;;;;5070464;28;20110;-65
2022/01/23 11:18:15;;;;;;;21.80;11.30;;;7.20;95.80;;;;;;5069074;28;20048;-65
2022/01/23 11:20:49;;;;;;;18.00;10.95;;;7.20;95.80;;;;;;5065723;28;20044;-66
2022/01/23 11:23:23;;;;;;;20.58;11.98;;;7.30;95.70;;;;;;5070566;28;20076;-65
2022/01/23 11:25:56;;;;;;;14.05;10.90;;;7.30;95.60;;;;;;5068505;28;20446;-67
2022/01/23 11:28:33;;;;;;;17.85;12.35;;;7.30;95.70;;;;;;5070583;28;20102;-66
2022/01/23 11:31:00;;;;;;;23.08;13.63;;;7.30;95.50;;;;;;5069031;28;20048;-64
2022/01/23 11:33:27;;;;;;;19.15;13.07;;;7.20;95.90;;;;;;5052156;28;20123;-66
2022/01/23 11:35:54;;;;;;;20.77;12.27;;;7.30;95.80;;;;;;5068771;28;20389;-66
2022/01/23 11:38:22;;;;;;;17.15;11.55;;;7.20;95.90;;;;;;5068943;28;20076;-67
2022/01/23 11:54:42;;;;;;;26.15;12.35;;;7.30;95.50;;;;;;5072724;28;20048;-66
2022/01/23 11:57:40;;;;;;;22.60;13.45;;;7.30;95.40;;;;;;5072584;28;20070;-66
2022/01/23 12:00:08;;;;;;;15.00;10.95;;;7.30;94.60;;;;;;5072045;28;20048;-66
2022/01/23 12:02:37;;;;;;;30.20;12.88;;;7.30;95.40;;;;;;5072670;28;20078;-66
2022/01/23 12:05:15;;;;;;;26.83;11.60;;;7.30;95.50;;;;;;5071453;28;20048;-67
2022/01/23 12:08:17;;;;;;;16.70;12.23;;;7.30;95.10;;;;;;5062397;28;21100;-66
2022/01/23 12:17:07;;;;;;;17.40;12.02;;;7.30;94.60;;;;;;5050919;28;20052;-65
2022/01/23 12:19:43;;;;;;;14.45;9.98;;;7.40;95.20;;;;;;5070211;28;20056;-66
2022/01/23 12:22:29;;;;;;;16.33;11.32;;;7.30;94.60;;;;;;5069958;28;20094;-66
2022/01/23 12:24:57;;;;;;;29.27;12.15;;;7.30;94.50;;;;;;5070930;28;20048;-66
2022/01/23 12:27:28;;;;;;;21.88;12.30;;;7.10;95.10;;;;;;5071472;28;20052;-66
2022/01/23 12:30:09;;;;;;;21.55;12.20;;;7.40;95.20;;;;;;5071560;28;20044;-67
2022/01/23 12:32:35;;;;;;;20.70;11.25;;;7.40;95.20;;;;;;5070003;28;20045;-67
2022/01/23 12:35:07;;;;;;;28.10;13.40;;;7.40;95.10;;;;;;5068890;28;20118;-66
2022/01/23 12:37:55;;;;;;;24.35;11.43;;;7.40;95.00;;;;;;5068756;28;20461;-70
2022/01/23 12:40:23;;;;;;;23.50;12.48;;;7.40;94.10;;;;;;5058392;28;20133;-66
2022/01/23 12:43:18;;;;;;;14.85;11.63;;;7.40;94.90;;;;;;5069886;28;20087;-66
2022/01/23 12:45:56;;;;;;;26.40;10.93;;;7.40;94.20;;;;;;5069514;28;20052;-67
2022/01/23 12:48:26;;;;;;;21.88;10.77;;;7.40;94.40;;;;;;5068794;28;20096;-66
2022/01/23 12:50:54;;;;;;;19.85;10.27;;;7.30;94.30;;;;;;5069588;28;20155;-66
2022/01/23 12:53:22;;;;;;;15.30;10.32;;;7.30;94.00;;;;;;5067405;28;20055;-66
2022/01/23 12:56:05;;;;;;;18.33;11.05;;;7.30;94.40;;;;;;5067760;28;20044;-66
2022/01/23 12:58:33;;;;;;;23.03;11.47;;;7.30;93.90;;;;;;5067796;28;20052;-67
2022/01/23 13:01:01;;;;;;;17.23;12.75;;;7.30;94.60;;;;;;5069115;28;20044;-66
2022/01/23 13:03:28;;;;;;;21.98;11.43;;;7.30;95.00;;;;;;5068433;28;20067;-66
2022/01/23 13:05:56;;;;;;;16.60;11.05;;;7.40;94.60;;;;;;5068685;28;20048;-66
2022/01/23 13:08:30;;;;;;;18.73;11.77;;;7.30;94.40;;;;;;5051191;28;20083;-66
2022/01/23 13:16:18;;;;;;;19.15;11.82;;;7.30;94.60;;;;;;5066939;28;20460;-67
2022/01/23 13:19:05;;;;;;;22.08;13.38;;;7.30;94.60;;;;;;5067194;28;20102;-66
2022/01/23 13:32:48;;;;;;;18.48;13.05;;;7.20;94.60;;;;;;5068191;28;20052;-66
2022/01/23 13:35:17;;;;;;;23.05;12.60;;;7.30;94.80;;;;;;5063851;28;20045;-66
2022/01/23 13:37:57;;;;;;;20.05;12.90;;;7.30;94.80;;;;;;5054456;28;20048;-66
2022/01/23 13:40:29;;;;;;;21.08;14.57;;;7.20;94.70;;;;;;5067260;28;20054;-67
2022/01/23 13:59:13;;;;;;;15.18;10.90;;;7.30;94.20;;;;;;5072216;28;20045;-66
2022/01/23 14:04:16;;;;;;;12.75;10.18;;;7.30;94.10;;;;;;5071643;28;20071;-64
2022/01/23 14:06:44;;;;;;;22.98;11.02;;;7.20;94.10;;;;;;5061479;28;20063;-66
2022/01/23 14:09:12;;;;;;;18.95;10.63;;;7.20;94.20;;;;;;5071731;28;20071;-65
2022/01/23 14:11:39;;;;;;;18.58;13.40;;;7.20;94.20;;;;;;5072034;28;20091;-66
2022/01/23 14:14:13;;;;;;;20.02;11.77;;;7.20;94.20;;;;;;5070711;28;20037;-66
2022/01/23 14:16:41;;;;;;;13.15;9.77;;;7.20;93.90;;;;;;5068897;28;20113;-66
2022/01/23 14:19:17;;;;;;;18.67;11.30;;;7.20;94.20;;;;;;5071464;28;20404;-66
2022/01/23 14:21:49;;;;;;;22.63;12.40;;;7.30;93.90;;;;;;5068354;28;20340;-66
2022/01/23 14:24:23;;;;;;;20.10;12.10;;;7.30;94.10;;;;;;5070023;28;20072;-66
2022/01/23 14:26:56;;;;;;;18.80;11.82;;;7.20;94.00;;;;;;5070000;28;20464;-66
2022/01/23 14:29:24;;;;;;;19.60;12.52;;;7.20;94.10;;;;;;5071903;28;20048;-65
2022/01/23 14:32:08;;;;;;;19.55;12.77;;;7.20;94.20;;;;;;5071418;28;20415;-66
2022/01/23 14:34:34;;;;;;;18.70;13.40;;;7.20;94.20;;;;;;5071541;28;20461;-66
2022/01/23 14:37:06;;;;;;;21.70;13.20;;;7.20;94.50;;;;;;5071218;28;20052;-66
2022/01/23 14:39:34;;;;;;;27.52;14.40;;;7.20;94.40;;;;;;5069770;28;20163;-66
2022/01/23 14:42:12;;;;;;;22.80;14.02;;;7.20;94.30;;;;;;5069845;28;20044;-66
2022/01/23 14:44:39;;;;;;;22.92;14.82;;;7.20;94.40;;;;;;5070033;28;20491;-66
2022/01/23 14:47:07;;;;;;;25.73;15.10;;;7.20;94.70;;;;;;5069529;28;20392;-66
2022/01/23 14:49:34;;;;;;;20.88;14.52;;;7.30;94.40;;;;;;5071134;28;20103;-66
2022/01/23 14:52:01;;;;;;;31.77;14.82;;;7.20;94.40;;;;;;5070867;28;20099;-65
2022/01/23 14:54:31;;;;;;;19.88;13.23;;;7.20;94.50;;;;;;5070315;28;20056;-65
2022/01/23 14:57:02;;;;;;;24.88;13.55;;;7.20;94.40;;;;;;5064773;28;20468;-65
2022/01/23 14:59:30;;;;;;;24.75;13.77;;;7.20;94.40;;;;;;5070906;28;20113;-65
2022/01/23 15:01:57;;;;;;;26.77;15.05;;;7.20;94.30;;;;;;5070865;28;20400;-65
2022/01/23 15:04:25;;;;;;;26.65;14.68;;;7.10;94.20;;;;;;5070755;28;20415;-65
2022/01/23 15:06:52;;;;;;;24.50;13.10;;;7.10;94.20;;;;;;5070639;28;20044;-65
2022/01/23 15:09:20;;;;;;;22.23;13.10;;;7.00;94.00;;;;;;5069717;28;20501;-65
2022/01/23 15:11:48;;;;;;;20.83;12.98;;;7.00;94.20;;;;;;5070532;28;20440;-65
2022/01/23 15:14:15;;;;;;;29.38;16.95;;;7.10;94.10;;;;;;5070745;28;20080;-65
2022/01/23 15:16:42;;;;;;;27.92;16.38;;;7.00;94.10;;;;;;5066852;28;20082;-65
2022/01/23 15:19:09;;;;;;;36.38;16.90;;;7.00;94.30;;;;;;5058486;28;20052;-66
2022/01/23 15:21:36;;;;;;;27.83;16.23;;;6.90;94.30;;;;;;5062133;28;20056;-67
2022/01/23 15:24:03;;;;;;;26.17;16.52;;;7.00;94.50;;;;;;5058557;28;20049;-65
2022/01/23 15:26:31;;;;;;;35.90;16.40;;;7.00;94.40;;;;;;5056915;28;20075;-65
2022/01/23 15:28:58;;;;;;;26.75;15.52;;;6.90;94.40;;;;;;5062302;28;20515;-65
2022/01/23 15:31:25;;;;;;;35.33;15.68;;;7.00;94.30;;;;;;5058260;28;20049;-65
2022/01/23 15:33:52;;;;;;;23.88;15.05;;;6.90;94.60;;;;;;5062026;28;20228;-65
2022/01/23 15:36:20;;;;;;;21.50;14.02;;;7.00;94.50;;;;;;5055053;28;20044;-65
2022/01/23 15:38:47;;;;;;;23.05;14.65;;;6.90;94.30;;;;;;5061738;28;20102;-66
2022/01/23 15:41:14;;;;;;;18.85;13.50;;;7.00;94.40;;;;;;5052427;28;20079;-65
2022/01/23 15:43:40;;;;;;;22.88;14.23;;;7.00;94.30;;;;;;5059636;28;20797;-66
2022/01/23 15:46:07;;;;;;;19.27;12.68;;;7.00;94.30;;;;;;5066802;28;20127;-66
2022/01/23 15:48:34;;;;;;;21.38;14.48;;;6.90;94.30;;;;;;5063945;28;20131;-65
2022/01/23 15:51:02;;;;;;;23.77;12.05;;;6.90;94.40;;;;;;5065621;28;20083;-65
2022/01/23 15:53:29;;;;;;;18.17;12.25;;;6.80;94.30;;;;;;5064770;28;20474;-66
2022/01/23 15:55:56;;;;;;;21.55;14.43;;;6.70;94.10;;;;;;5065876;28;20057;-66
2022/01/23 15:58:23;;;;;;;24.75;11.70;;;6.70;94.20;;;;;;5071477;28;20098;-66
2022/01/23 16:00:50;;;;;;;15.82;11.73;;;6.70;94.20;;;;;;5066372;28;20088;-66
2022/01/23 16:03:17;;;;;;;20.05;12.25;;;6.70;93.90;;;;;;5065218;28;20044;-65
2022/01/23 16:05:44;;;;;;;22.60;13.05;;;6.70;94.10;;;;;;5068167;28;20451;-65
2022/01/23 16:08:13;;;;;;;17.88;12.27;;;6.70;94.10;;;;;;5063976;28;20098;-65
2022/01/23 16:10:39;;;;;;;20.77;12.02;;;6.80;94.20;;;;;;5065840;28;20137;-66
2022/01/23 16:13:06;;;;;;;17.83;11.73;;;6.80;94.30;;;;;;5061456;28;20048;-66
2022/01/23 16:15:33;;;;;;;31.73;14.50;;;6.70;94.10;;;;;;5058738;28;20075;-66
2022/01/23 16:18:02;;;;;;;28.67;14.07;;;6.70;94.20;;;;;;5063559;28;20052;-65
2022/01/23 16:20:29;;;;;;;21.42;11.05;;;6.70;94.30;;;;;;5061511;28;20052;-65
2022/01/23 16:22:56;;;;;;;16.27;11.50;;;6.70;94.30;;;;;;5063715;28;20044;-65
2022/01/23 16:25:22;;;;;;;31.25;12.82;;;6.70;94.10;;;;;;5065007;28;20040;-67
2022/01/23 16:27:49;;;;;;;41.97;14.13;;;6.60;94.20;;;;;;5064651;28;20049;-67
2022/01/23 16:30:19;;;;;;;19.48;13.02;;;6.60;94.20;;;;;;5065808;28;20059;-66